createdAt,value
2019-03-28T00:01:45.211Z,99.90
2019-03-28T00:04:17.226Z,99.90
2019-03-28T00:06:48.100Z,99.90
2019-03-28T00:09:19.356Z,99.90
2019-03-28T00:11:50.605Z,99.90
2019-03-28T00:14:22.431Z,99.90
2019-03-28T00:16:53.168Z,99.90
2019-03-28T00:19:23.919Z,99.90
2019-03-28T00:21:54.777Z,99.90
2019-03-28T00:24:29.204Z,99.90
2019-03-28T00:26:59.876Z,99.90
2019-03-28T00:29:30.728Z,99.90
2019-03-28T00:32:03.087Z,99.90
2019-03-28T00:34:34.071Z,99.90
2019-03-28T00:37:07.522Z,99.90
2019-03-28T00:39:37.486Z,99.90
2019-03-28T00:42:08.207Z,99.90
2019-03-28T00:44:39.059Z,99.90
2019-03-28T00:47:09.768Z,99.90
2019-03-28T00:49:40.639Z,99.90
2019-03-28T00:52:11.551Z,99.90
2019-03-28T00:54:44.008Z,99.90
2019-03-28T00:57:14.832Z,99.90
2019-03-28T00:59:45.564Z,99.90
2019-03-28T01:02:16.387Z,99.90
2019-03-28T01:04:47.238Z,99.90
2019-03-28T01:07:18.407Z,99.90
2019-03-28T01:09:49.263Z,99.90
2019-03-28T01:12:19.952Z,99.90
2019-03-28T01:14:50.786Z,99.90
2019-03-28T01:17:21.512Z,99.90
2019-03-28T01:19:52.301Z,99.90
2019-03-28T01:22:23.022Z,99.90
2019-03-28T01:24:53.872Z,99.90
2019-03-28T01:27:25.216Z,99.90
2019-03-28T01:29:55.905Z,99.90
2019-03-28T01:32:26.642Z,99.90
2019-03-28T01:34:57.742Z,99.90
2019-03-28T01:37:29.307Z,99.90
2019-03-28T01:40:00.423Z,99.90
2019-03-28T01:42:31.365Z,99.90
2019-03-28T01:45:02.101Z,99.90
2019-03-28T01:47:32.788Z,99.90
2019-03-28T01:50:03.669Z,99.90
2019-03-28T01:52:34.484Z,99.90
2019-03-28T01:55:05.343Z,99.90
2019-03-28T01:57:36.076Z,99.90
2019-03-28T02:00:07.629Z,99.90
2019-03-28T02:02:38.414Z,99.90
2019-03-28T02:05:09.459Z,99.90
2019-03-28T02:07:40.196Z,99.90
2019-03-28T02:10:11.215Z,99.90
2019-03-28T02:12:42.017Z,99.90
2019-03-28T02:15:14.080Z,99.90
2019-03-28T02:17:45.082Z,99.90
2019-03-28T02:20:16.051Z,99.90
2019-03-28T02:22:46.889Z,99.90
2019-03-28T02:25:17.725Z,99.90
2019-03-28T02:27:48.559Z,99.90
2019-03-28T02:30:24.792Z,99.90
2019-03-28T02:32:55.858Z,99.90
2019-03-28T02:35:26.665Z,99.90
2019-03-28T02:37:59.290Z,99.90
2019-03-28T02:40:30.182Z,99.90
2019-03-28T02:43:00.955Z,99.90
2019-03-28T02:45:31.754Z,99.90
2019-03-28T02:48:02.533Z,99.90
2019-03-28T02:50:33.309Z,99.90
2019-03-28T02:53:04.088Z,99.90
2019-03-28T02:55:35.084Z,99.90
2019-03-28T02:58:05.864Z,99.90
2019-03-28T03:00:36.704Z,99.90
2019-03-28T03:03:07.406Z,99.90
2019-03-28T03:05:38.285Z,99.90
2019-03-28T03:08:09.020Z,99.90
2019-03-28T03:10:39.811Z,99.90
2019-03-28T03:13:10.693Z,99.90
2019-03-28T03:15:42.553Z,99.90
2019-03-28T03:18:13.240Z,99.90
2019-03-28T03:20:43.987Z,99.90
2019-03-28T03:23:14.703Z,99.90
2019-03-28T03:25:46.389Z,99.90
2019-03-28T03:28:17.236Z,99.90
2019-03-28T03:30:48.084Z,99.90
2019-03-28T03:33:18.840Z,99.90
2019-03-28T03:35:50.739Z,99.90
2019-03-28T03:38:21.752Z,99.90
2019-03-28T03:40:52.862Z,99.90
2019-03-28T03:43:23.698Z,99.90
2019-03-28T03:45:55.558Z,99.90
2019-03-28T03:48:26.251Z,99.90
2019-03-28T03:50:57.093Z,99.90
2019-03-28T03:53:27.823Z,99.90
2019-03-28T03:55:58.841Z,99.90
2019-03-28T03:58:29.639Z,99.90
2019-03-28T04:01:00.372Z,99.90
2019-03-28T04:03:31.416Z,99.90
2019-03-28T04:06:02.276Z,99.90
2019-03-28T04:08:33.136Z,99.90
2019-03-28T04:11:03.873Z,99.90
2019-03-28T04:13:34.609Z,99.90
2019-03-28T04:16:05.596Z,99.90
2019-03-28T04:18:36.321Z,99.90
2019-03-28T04:21:07.029Z,99.90
2019-03-28T04:23:37.799Z,99.90
2019-03-28T04:26:09.658Z,99.90
2019-03-28T04:28:40.512Z,99.90
2019-03-28T04:31:11.300Z,99.90
2019-03-28T04:33:42.068Z,99.90
2019-03-28T04:36:12.888Z,99.90
2019-03-28T04:38:43.637Z,99.90
2019-03-28T04:41:14.473Z,99.90
2019-03-28T04:43:45.206Z,99.90
2019-03-28T04:46:15.999Z,99.90
2019-03-28T04:48:46.971Z,99.90
2019-03-28T04:51:17.838Z,99.90
2019-03-28T04:53:48.608Z,99.90
2019-03-28T04:56:19.493Z,99.90
2019-03-28T04:58:50.315Z,99.90
2019-03-28T05:01:21.122Z,99.90
2019-03-28T05:03:51.850Z,99.90
2019-03-28T05:06:22.666Z,99.90
2019-03-28T05:08:53.571Z,99.90
2019-03-28T05:11:24.255Z,99.90
2019-03-28T05:13:54.996Z,99.90
2019-03-28T05:16:25.855Z,99.90
2019-03-28T05:19:15.630Z,99.90
2019-03-28T05:21:46.494Z,99.90
2019-03-28T05:24:18.460Z,99.90
2019-03-28T05:26:49.483Z,99.90
2019-03-28T05:29:20.184Z,99.90
2019-03-28T05:31:51.272Z,99.90
2019-03-28T05:34:25.069Z,99.90
2019-03-28T05:36:55.675Z,99.90
2019-03-28T05:39:45.387Z,99.90
2019-03-28T05:42:16.236Z,99.90
2019-03-28T05:44:47.273Z,99.90
2019-03-28T05:47:18.232Z,99.90
2019-03-28T05:49:49.124Z,99.90
2019-03-28T05:52:19.755Z,99.90
2019-03-28T05:54:50.587Z,99.90
2019-03-28T05:57:26.327Z,99.90
2019-03-28T05:59:57.167Z,99.90
2019-03-28T06:02:28.139Z,99.90
2019-03-28T06:05:00.457Z,99.90
2019-03-28T06:07:31.248Z,99.90
2019-03-28T06:10:02.188Z,99.90
2019-03-28T06:12:33.026Z,99.90
2019-03-28T06:15:03.888Z,99.90
2019-03-28T06:17:34.747Z,99.90
2019-03-28T06:20:06.244Z,99.90
2019-03-28T06:22:37.291Z,99.90
2019-03-28T06:25:08.182Z,99.90
2019-03-28T06:27:39.040Z,99.90
2019-03-28T06:30:10.555Z,99.90
2019-03-28T06:32:43.119Z,99.90
2019-03-28T06:35:14.869Z,99.90
2019-03-28T06:40:21.707Z,99.90
2019-03-28T06:42:52.504Z,99.90
2019-03-28T06:45:23.325Z,99.90
2019-03-28T06:47:54.020Z,99.90
2019-03-28T06:50:24.935Z,99.90
2019-03-28T06:52:56.040Z,99.90
2019-03-28T06:55:27.082Z,99.90
2019-03-28T06:57:57.984Z,99.90
2019-03-28T07:00:29.223Z,99.90
2019-03-28T07:02:59.998Z,99.90
2019-03-28T07:05:30.939Z,99.90
2019-03-28T07:08:01.678Z,99.90
2019-03-28T07:10:32.490Z,99.90
2019-03-28T07:13:03.241Z,99.90
2019-03-28T07:15:36.575Z,99.90
2019-03-28T07:18:10.115Z,99.90
2019-03-28T07:20:40.871Z,99.90
2019-03-28T07:23:11.589Z,99.90
2019-03-28T07:25:42.395Z,99.90
2019-03-28T07:28:13.190Z,99.90
2019-03-28T07:30:43.990Z,99.90
2019-03-28T07:33:14.745Z,99.90
2019-03-28T07:35:47.629Z,99.90
2019-03-28T07:38:18.369Z,99.90
2019-03-28T07:40:49.202Z,99.90
2019-03-28T07:43:19.879Z,99.90
2019-03-28T07:45:50.831Z,99.90
2019-03-28T07:48:21.558Z,99.90
2019-03-28T07:50:52.302Z,99.90
2019-03-28T07:53:23.177Z,99.90
2019-03-28T07:55:55.038Z,99.90
2019-03-28T07:58:26.011Z,99.90
2019-03-28T08:00:56.700Z,99.90
2019-03-28T08:03:27.566Z,99.90
2019-03-28T08:05:58.519Z,99.90
2019-03-28T08:08:38.762Z,99.90
2019-03-28T08:11:01.757Z,99.90
2019-03-28T08:13:32.451Z,99.90
2019-03-28T08:16:03.292Z,99.90
2019-03-28T08:18:33.851Z,99.90
2019-03-28T08:21:04.687Z,99.90
2019-03-28T08:23:35.636Z,99.90
2019-03-28T08:26:07.531Z,99.90
2019-03-28T08:28:38.239Z,99.90
2019-03-28T08:31:09.001Z,99.90
2019-03-28T08:33:41.649Z,99.90
2019-03-28T08:36:14.431Z,99.90
2019-03-28T08:38:46.904Z,99.90
2019-03-28T08:41:18.263Z,99.90
2019-03-28T08:43:49.256Z,99.90
2019-03-28T08:46:20.248Z,99.90
2019-03-28T08:48:51.108Z,99.90
2019-03-28T08:51:22.247Z,99.90
2019-03-28T08:53:53.207Z,99.90
2019-03-28T08:56:24.315Z,99.90
2019-03-28T08:59:05.873Z,99.90
2019-03-28T09:01:36.869Z,99.90
2019-03-28T09:04:07.608Z,99.90
2019-03-28T09:06:38.467Z,99.90
2019-03-28T09:09:10.911Z,99.90
2019-03-28T09:11:41.932Z,99.90
2019-03-28T09:14:12.663Z,99.90
2019-03-28T09:16:43.514Z,99.90
2019-03-28T09:19:14.512Z,99.90
2019-03-28T09:21:45.311Z,99.90
2019-03-28T09:24:16.130Z,99.90
2019-03-28T09:26:47.069Z,99.90
2019-03-28T09:29:18.025Z,99.90
2019-03-28T09:31:48.849Z,99.90
2019-03-28T09:34:19.658Z,99.90
2019-03-28T09:36:50.620Z,99.90
2019-03-28T09:39:24.746Z,99.90
2019-03-28T09:41:54.233Z,95.70
2019-03-28T09:44:25.394Z,98.30
2019-03-28T09:46:56.393Z,99.90
2019-03-28T09:49:27.520Z,99.80
2019-03-28T09:51:58.325Z,99.90
2019-03-28T09:54:29.151Z,99.90
2019-03-28T09:57:00.277Z,99.90
2019-03-28T09:59:31.265Z,97.90
2019-03-28T10:02:02.669Z,94.70
2019-03-28T10:04:34.072Z,96.70
2019-03-28T10:07:05.642Z,98.50
2019-03-28T10:09:36.773Z,94.30
2019-03-28T10:12:07.984Z,95.60
2019-03-28T10:14:38.838Z,95.50
2019-03-28T10:17:09.756Z,95.20
2019-03-28T10:19:40.623Z,93.30
2019-03-28T10:22:11.528Z,92.40
2019-03-28T10:24:42.555Z,91.70
2019-03-28T10:27:13.443Z,90.60
2019-03-28T10:29:44.322Z,85.40
2019-03-28T10:32:15.201Z,84.70
2019-03-28T10:34:46.319Z,83.20
2019-03-28T10:37:18.063Z,86.40
2019-03-28T10:39:49.158Z,86.50
2019-03-28T10:42:20.630Z,85.30
2019-03-28T10:44:51.396Z,86.00
2019-03-28T10:47:23.250Z,81.20
2019-03-28T10:49:54.035Z,80.10
2019-03-28T10:52:24.595Z,82.70
2019-03-28T10:54:55.257Z,79.00
2019-03-28T10:57:32.431Z,79.30
2019-03-28T11:00:03.383Z,75.60
2019-03-28T11:02:34.365Z,77.90
2019-03-28T11:05:05.463Z,74.40
2019-03-28T11:07:36.367Z,76.80
2019-03-28T11:10:07.952Z,73.90
2019-03-28T11:12:38.783Z,73.70
2019-03-28T11:15:09.927Z,73.30
2019-03-28T11:17:40.663Z,73.90
2019-03-28T11:20:12.011Z,73.50
2019-03-28T11:22:42.934Z,73.60
2019-03-28T11:25:13.888Z,70.50
2019-03-28T11:27:45.040Z,73.10
2019-03-28T11:30:18.360Z,70.20
2019-03-28T11:32:48.314Z,70.70
2019-03-28T11:35:19.292Z,69.20
2019-03-28T11:37:50.306Z,67.80
2019-03-28T11:40:24.447Z,69.10
2019-03-28T11:42:53.926Z,69.20
2019-03-28T11:45:27.178Z,70.30
2019-03-28T11:47:58.042Z,67.40
2019-03-28T11:50:28.715Z,65.50
2019-03-28T11:52:59.852Z,63.10
2019-03-28T11:55:30.850Z,62.10
2019-03-28T11:58:01.638Z,61.60
2019-03-28T12:00:32.392Z,60.50
2019-03-28T12:03:03.306Z,58.30
2019-03-28T12:05:34.862Z,56.90
2019-03-28T12:08:05.807Z,60.00
2019-03-28T12:10:36.706Z,59.40
2019-03-28T12:13:07.450Z,58.50
2019-03-28T12:15:38.179Z,59.20
2019-03-28T12:18:08.755Z,59.60
2019-03-28T12:20:39.557Z,58.60
2019-03-28T12:23:10.428Z,57.60
2019-03-28T12:25:41.234Z,54.40
2019-03-28T12:28:11.974Z,55.40
2019-03-28T12:30:43.748Z,54.60
2019-03-28T12:33:14.866Z,56.30
2019-03-28T12:35:46.626Z,54.00
2019-03-28T12:38:17.642Z,56.20
2019-03-28T12:40:48.499Z,54.70
2019-03-28T12:43:19.442Z,54.30
2019-03-28T12:45:50.415Z,55.00
2019-03-28T12:48:21.339Z,55.40
2019-03-28T12:50:58.761Z,56.50
2019-03-28T12:53:24.642Z,56.70
2019-03-28T12:55:55.674Z,55.60
2019-03-28T12:58:26.377Z,53.60
2019-03-28T13:00:57.270Z,55.80
2019-03-28T13:03:31.288Z,54.70
2019-03-28T13:06:00.735Z,53.50
2019-03-28T13:08:31.739Z,54.30
2019-03-28T13:11:02.749Z,55.50
2019-03-28T13:13:33.796Z,55.20
2019-03-28T13:16:05.484Z,54.40
2019-03-28T13:18:36.486Z,53.20
2019-03-28T13:21:13.203Z,53.00
2019-03-28T13:23:39.764Z,53.90
2019-03-28T13:26:11.316Z,54.40
2019-03-28T13:28:42.093Z,51.80
2019-03-28T13:31:13.037Z,52.40
2019-03-28T13:33:43.853Z,51.80
2019-03-28T13:36:14.905Z,52.90
2019-03-28T13:38:45.728Z,54.60
2019-03-28T13:41:17.800Z,54.40
2019-03-28T13:43:48.602Z,53.70
2019-03-28T13:46:19.484Z,52.20
2019-03-28T13:48:50.174Z,52.70
2019-03-28T13:51:20.918Z,53.70
2019-03-28T13:53:52.154Z,52.40
2019-03-28T13:56:23.176Z,53.30
2019-03-28T13:58:53.953Z,54.90
2019-03-28T14:01:26.251Z,52.80
2019-03-28T14:03:57.263Z,53.60
2019-03-28T14:06:28.362Z,54.00
2019-03-28T14:08:59.358Z,52.40
2019-03-28T14:11:30.166Z,52.80
2019-03-28T14:14:01.234Z,52.90
2019-03-28T14:16:33.083Z,51.40
2019-03-28T14:19:04.003Z,51.80
2019-03-28T14:21:39.558Z,51.70
2019-03-28T14:24:11.689Z,52.60
2019-03-28T14:26:42.281Z,52.40
2019-03-28T14:29:12.834Z,50.60
2019-03-28T14:31:43.291Z,50.60
2019-03-28T14:34:13.887Z,49.70
2019-03-28T14:36:44.388Z,48.70
2019-03-28T14:39:15.243Z,50.00
2019-03-28T14:41:46.547Z,49.90
2019-03-28T14:44:17.186Z,51.00
2019-03-28T14:46:47.640Z,52.00
2019-03-28T14:49:18.217Z,52.30
2019-03-28T14:51:48.633Z,52.50
2019-03-28T14:54:19.043Z,52.40
2019-03-28T14:56:50.132Z,50.70
2019-03-28T14:59:31.850Z,52.10
2019-03-28T15:01:53.314Z,49.70
2019-03-28T15:04:23.828Z,48.90
2019-03-28T15:06:54.510Z,49.10
2019-03-28T15:09:25.025Z,50.00
2019-03-28T15:11:55.546Z,51.10
2019-03-28T15:14:26.117Z,53.10
2019-03-28T15:16:57.154Z,53.80
2019-03-28T15:19:27.974Z,53.80
2019-03-28T15:21:58.844Z,53.50
2019-03-28T15:24:29.634Z,54.20
2019-03-28T15:27:00.622Z,55.00
2019-03-28T15:29:31.281Z,54.50
2019-03-28T15:32:02.187Z,54.80
2019-03-28T15:34:33.210Z,54.80
2019-03-28T15:37:05.160Z,54.50
2019-03-28T15:39:36.014Z,54.40
2019-03-28T15:42:06.891Z,55.00
2019-03-28T15:44:39.330Z,57.00
2019-03-28T15:47:11.596Z,56.30
2019-03-28T15:49:42.741Z,58.30
2019-03-28T15:52:13.674Z,58.50
2019-03-28T15:54:44.521Z,59.80
2019-03-28T15:57:15.723Z,59.90
2019-03-28T15:59:46.696Z,60.80
2019-03-28T16:02:17.429Z,61.80
2019-03-28T16:04:48.194Z,60.80
2019-03-28T16:07:18.997Z,62.70
2019-03-28T16:09:49.990Z,61.40
2019-03-28T16:12:20.777Z,61.60
2019-03-28T16:14:51.458Z,62.80
2019-03-28T16:17:22.525Z,63.40
2019-03-28T16:19:53.286Z,64.90
2019-03-28T16:22:25.739Z,64.60
2019-03-28T16:24:56.807Z,66.90
2019-03-28T16:27:27.635Z,66.20
2019-03-28T16:29:58.446Z,67.50
2019-03-28T16:32:29.210Z,66.50
2019-03-28T16:34:59.921Z,67.90
2019-03-28T16:37:30.826Z,68.80
2019-03-28T16:40:01.613Z,69.50
2019-03-28T16:42:32.601Z,69.50
2019-03-28T16:45:03.423Z,69.10
2019-03-28T16:47:34.328Z,68.90
2019-03-28T16:50:05.173Z,70.30
2019-03-28T16:52:36.104Z,70.40
2019-03-28T16:55:07.657Z,70.70
2019-03-28T16:57:38.598Z,70.30
2019-03-28T17:00:12.283Z,70.30
2019-03-28T17:02:43.031Z,70.90
2019-03-28T17:05:14.222Z,71.50
2019-03-28T17:07:46.831Z,71.70
2019-03-28T17:10:41.366Z,71.80
2019-03-28T17:13:12.184Z,72.70
2019-03-28T17:15:43.223Z,72.50
2019-03-28T17:18:14.146Z,73.40
2019-03-28T17:20:45.003Z,73.90
2019-03-28T17:23:15.946Z,74.10
2019-03-28T17:25:46.963Z,75.10
2019-03-28T17:28:17.849Z,74.20
2019-03-28T17:30:48.962Z,73.70
2019-03-28T17:33:19.903Z,76.30
2019-03-28T17:35:51.969Z,76.70
2019-03-28T17:38:22.703Z,78.70
2019-03-28T17:40:53.863Z,77.70
2019-03-28T17:43:24.958Z,77.90
2019-03-28T17:45:55.889Z,77.70
2019-03-28T17:48:46.603Z,78.50
2019-03-28T17:51:17.438Z,79.40
2019-03-28T17:53:48.218Z,80.10
2019-03-28T17:56:19.345Z,81.80
2019-03-28T17:58:50.071Z,82.70
2019-03-28T18:01:20.911Z,86.50
2019-03-28T18:03:51.762Z,86.60
2019-03-28T18:06:22.583Z,91.10
2019-03-28T18:08:53.445Z,90.70
2019-03-28T18:11:24.253Z,91.70
2019-03-28T18:13:55.070Z,90.40
2019-03-28T18:16:26.106Z,90.50
2019-03-28T18:18:56.886Z,91.80
2019-03-28T18:21:27.758Z,91.40
2019-03-28T18:23:58.715Z,92.40
2019-03-28T18:26:29.562Z,92.80
2019-03-28T18:29:00.451Z,92.80
2019-03-28T18:31:31.960Z,93.00
2019-03-28T18:34:03.050Z,93.30
2019-03-28T18:36:35.590Z,92.30
2019-03-28T18:39:07.934Z,91.90
2019-03-28T18:41:38.857Z,91.40
2019-03-28T18:44:09.840Z,93.70
2019-03-28T18:46:40.523Z,92.70
2019-03-28T18:49:11.613Z,94.20
2019-03-28T18:51:42.483Z,93.60
2019-03-28T18:54:13.285Z,92.00
2019-03-28T18:56:44.123Z,92.70
2019-03-28T18:59:14.937Z,92.70
2019-03-28T19:01:45.692Z,94.40
2019-03-28T19:04:16.478Z,97.00
2019-03-28T19:06:46.870Z,97.50
2019-03-28T19:09:17.794Z,98.20
2019-03-28T19:11:48.409Z,99.00
2019-03-28T19:14:19.065Z,98.50
2019-03-28T19:16:52.169Z,97.30
2019-03-28T19:19:22.331Z,97.70
2019-03-28T19:21:55.808Z,98.20
2019-03-28T19:24:25.768Z,98.70
2019-03-28T19:26:56.587Z,99.50
2019-03-28T19:29:27.029Z,98.90
2019-03-28T19:31:57.546Z,99.90
2019-03-28T19:34:28.208Z,99.90
2019-03-28T19:36:59.657Z,99.90
2019-03-28T19:39:32.268Z,99.80
2019-03-28T19:42:04.647Z,99.90
2019-03-28T19:44:36.298Z,99.90
2019-03-28T19:47:07.308Z,99.90
2019-03-28T19:49:38.344Z,99.90
2019-03-28T19:52:09.215Z,99.90
2019-03-28T19:54:40.070Z,99.90
2019-03-28T19:57:11.040Z,99.90
2019-03-28T19:59:41.811Z,99.90
2019-03-28T20:02:14.211Z,99.90
2019-03-28T20:04:45.325Z,99.90
2019-03-28T20:07:21.551Z,99.90
2019-03-28T20:09:48.620Z,99.90
2019-03-28T20:12:19.356Z,99.90
2019-03-28T20:14:50.003Z,99.90
2019-03-28T20:17:20.864Z,99.90
2019-03-28T20:19:51.266Z,99.90
2019-03-28T20:22:21.776Z,99.90
2019-03-28T20:24:52.156Z,99.90
2019-03-28T20:27:23.267Z,99.90
2019-03-28T20:29:54.186Z,99.90
2019-03-28T20:32:24.932Z,99.90
2019-03-28T20:34:56.184Z,99.90
2019-03-28T20:37:27.316Z,99.90
2019-03-28T20:39:58.731Z,99.90
2019-03-28T20:42:30.392Z,99.90
2019-03-28T20:45:01.248Z,99.90
2019-03-28T20:47:33.211Z,99.90
2019-03-28T20:50:04.084Z,99.90
2019-03-28T20:52:35.482Z,99.90
2019-03-28T20:55:06.541Z,99.90
2019-03-28T20:57:40.406Z,99.90
2019-03-28T21:00:11.222Z,99.90
2019-03-28T21:02:42.018Z,99.90
2019-03-28T21:05:14.493Z,99.90
2019-03-28T21:07:45.740Z,99.90
2019-03-28T21:10:26.595Z,99.90
2019-03-28T21:12:57.331Z,99.90
2019-03-28T21:15:28.289Z,99.90
2019-03-28T21:17:59.120Z,99.90
2019-03-28T21:20:29.853Z,99.90
2019-03-28T21:23:04.798Z,99.90
2019-03-28T21:25:33.887Z,99.90
2019-03-28T21:28:04.820Z,99.90
2019-03-28T21:30:46.701Z,99.90
2019-03-28T21:33:08.133Z,99.90
2019-03-28T21:35:39.992Z,99.90
2019-03-28T21:38:11.237Z,99.90
2019-03-28T21:40:41.973Z,99.90
2019-03-28T21:43:14.382Z,99.90
2019-03-28T21:45:45.238Z,99.90
2019-03-28T21:48:16.912Z,99.90
2019-03-28T21:50:47.936Z,99.90
2019-03-28T21:53:20.100Z,99.90
2019-03-28T21:55:55.560Z,99.90
2019-03-28T21:58:23.848Z,99.90
2019-03-28T22:00:54.554Z,99.90
2019-03-28T22:03:25.339Z,99.90
2019-03-28T22:05:57.419Z,99.90
2019-03-28T22:08:28.192Z,99.90
2019-03-28T22:10:58.930Z,99.90
2019-03-28T22:13:29.659Z,99.90
2019-03-28T22:16:00.531Z,99.90
2019-03-28T22:18:31.126Z,99.90
2019-03-28T22:21:01.865Z,99.90
2019-03-28T22:23:32.611Z,99.90
2019-03-28T22:26:03.686Z,99.90
2019-03-28T22:28:37.697Z,99.90
2019-03-28T22:31:07.052Z,99.90
2019-03-28T22:33:37.730Z,99.90
2019-03-28T22:36:09.589Z,99.90
2019-03-28T22:38:40.279Z,99.90
2019-03-28T22:41:11.184Z,99.90
2019-03-28T22:43:41.844Z,99.90
2019-03-28T22:46:14.130Z,99.90
2019-03-28T22:48:49.563Z,99.90
2019-03-28T22:51:20.301Z,99.90
2019-03-28T22:53:51.184Z,99.90
2019-03-28T22:56:22.921Z,99.90
2019-03-28T22:58:54.389Z,99.90
2019-03-28T23:01:25.225Z,99.90
2019-03-28T23:03:55.959Z,99.90
2019-03-28T23:06:26.872Z,99.90
2019-03-28T23:08:58.814Z,99.90
2019-03-28T23:11:29.743Z,99.90
2019-03-28T23:14:00.533Z,99.90
2019-03-28T23:16:32.392Z,99.90
2019-03-28T23:19:03.184Z,99.90
2019-03-28T23:21:34.065Z,99.90
2019-03-28T23:24:04.768Z,99.90
2019-03-28T23:26:35.694Z,99.90
2019-03-28T23:29:06.553Z,99.90
2019-03-28T23:31:37.308Z,99.90
2019-03-28T23:34:08.111Z,99.90
2019-03-28T23:36:39.188Z,99.90
2019-03-28T23:39:10.023Z,99.90
2019-03-28T23:41:41.026Z,99.90
2019-03-28T23:44:11.900Z,99.90
2019-03-28T23:46:42.838Z,99.90
2019-03-28T23:49:13.873Z,99.90
2019-03-28T23:51:45.025Z,99.90
2019-03-28T23:54:15.894Z,99.90
2019-03-28T23:56:46.551Z,99.90
2019-03-28T23:59:17.376Z,99.90
